Aéroport int. de Vancouver, Colombie-Britannique

Conditions des dernières 24 heures

Ce tableau est un sommaire des conditions météo couvrant les dernières 24 heures. Ce sommaire inclut les paramètres suivants: température, humidité, point de rosée, direction et vitesse du vent, pression barométrique, facteur de refroidissement éolien ou indice humidex.
Date / Heure
(HAP)
Conditions Temp (°F) Humidite (%) Point de rose (°F) Vent (mph) Pression (pouces) Visibilité (miles)
23 avril 2014
4:00 Partiellement nuageux 44   91 41 E 7 29.9 12
3:00 Généralement dégagé 45 92 43 ENE 10 29.9 12
2:00 Partiellement nuageux 45 90 42 ENE 9 29.9 12
1:00 Partiellement nuageux 45 90 42 NE 7 29.9 12
0:00 Généralement nuageux 45 91 43 ENE 7 29.8 12
22 avril 2014
23:00 Pluie faible 46 89 43 ENE 9 29.8 10
22:00 Pluie faible 48 81 42 NO 3 29.9 12
21:00 Généralement nuageux 48 79 42 OSO 6 29.9 15
20:00 Partiellement nuageux 50 62 38 S 9 29.8 20
19:00 Généralement nuageux 52 59 38 SSE 11 29.8 20
18:00 Généralement ensoleillé 54 54 38 S 11 29.8 30
17:00 Généralement ensoleillé 53 59 39 S 13 rafale 22 29.9 30
16:00 Généralement ensoleillé 57   47 37 SSE 13 rafale 21 29.9 30
15:00 Généralement ensoleillé 56 46 36 S 9 29.9 30
14:00 Généralement ensoleillé 54 45 33 SO 7 29.9 30
13:00 Généralement ensoleillé 52 54 36 SO 7 29.9 20
12:00 Partiellement nuageux 51 63 39 SO 7 29.9 20
11:00 Généralement ensoleillé 49 69 39 SSO 10 29.8 20
10:00 Partiellement nuageux 50 71 41 SO 17 29.8 30
9:00 Partiellement nuageux 48 82 43 OSO 14 rafale 21 29.8 15
8:00 Partiellement nuageux 47 84 42 OSO 15 29.8 15
7:00 Partiellement nuageux 46 82 41 O 19 29.8 20
6:00 Partiellement nuageux 47 85 42 O 18 29.8 15
5:00 Partiellement nuageux 46 88 43 O 20 29.8 15
4:00 Généralement nuageux 47 89 44 O 19 29.8 15
N.D.
non disponible
 ↑ 
température la plus haute
 ↓ 
température la plus basse

Si vous désirez plus de données historiques sur les conditions météo, s.v.p. visitez Données climatologiques en ligne.